Airfield :
LOGIN :

Register | Disclaimer

   EN    FR    IT 

 










Legend :    VFR   Marginal VFR   IFR   Intensive IFR   Very Intensive IFR
Visi :
Ceiling :
>= 8 km
>= 3000ft
5 to 8 km
1000 to 3000 ft
1500m to 5 km
500 to 1000 ft
800 to 1500m
200 to 500 ft
< 800m
< 200 ft
Symbols :   Thunderstorms  Fog  Heavy snow  Heavy precipitations  Wind > 20 kt
SIGMETs :     Misc.  Thunderstorms  Icing  Turbulence  Mountain Waves  Volcanic Ashes







- Airport Elevation : 147 ft
- IATA code : DUS


EDDL - Düsseldorf Int.

CURRENT METAR :
  • 262220Z 30004KT 9999 FEW040 08/03 Q1032 NOSIG

EXPIRED METARs :
  • 262150Z 28003KT 9999 FEW038 08/03 Q1032 NOSIG
  • 262120Z 27004KT 9999 SCT038 08/03 Q1031 NOSIG
  • 262050Z 30003KT 9999 FEW040 08/03 Q1031 NOSIG
  • 262020Z 29004KT 9999 FEW040 08/03 Q1031 NOSIG
  • 261950Z 28003KT 9999 FEW040 08/03 Q1031 NOSIG

TAF TAF EDDL
Valid from the 26 at 18:00 until the 28 at 00:00 UTC


261700Z 2618/2724 29006KT 9999 BKN040
BECMG 2619/2622 VRB02KT
BECMG 2703/2706 BKN010
TEMPO 2706/2709 4000 BR BKN006
BECMG 2709/2712 26005KT BKN020
No reported NOTAMs for that airfield.



MET'MAP, your aeronautical weather chart ! - Copyright ORBIFLY December 2007 - Disclaimer

ORBIFLY MET'MAP TEAM :

Programming & Development : Alexandra Zaïnal
Concept & Development : Baudouin d'Aumeries
Co-Development & Prog : Marc-Olivier Méhu
Technical & hardware support : Manuel Goepfert

Contact : metmap@orbifly.com




SOURCES & CREDITS :

   NOAA